sensor_id;sensor_type;location;lat;lon;timestamp;P1;durP1;ratioP1;P2;durP2;ratioP2
9860;SDS011;4969;52.304;4.968;2023-03-05T00:01:52;11.73;;;6.03;;
9860;SDS011;4969;52.304;4.968;2023-03-05T00:04:20;12.80;;;7.10;;
9860;SDS011;4969;52.304;4.968;2023-03-05T00:06:47;8.53;;;6.37;;
9860;SDS011;4969;52.304;4.968;2023-03-05T00:09:14;12.13;;;8.23;;
9860;SDS011;4969;52.304;4.968;2023-03-05T00:11:41;11.63;;;5.40;;
9860;SDS011;4969;52.304;4.968;2023-03-05T00:14:08;9.07;;;6.70;;
9860;SDS011;4969;52.304;4.968;2023-03-05T00:16:35;9.23;;;6.13;;
9860;SDS011;4969;52.304;4.968;2023-03-05T00:19:02;13.53;;;5.83;;
9860;SDS011;4969;52.304;4.968;2023-03-05T00:21:31;7.73;;;5.20;;
9860;SDS011;4969;52.304;4.968;2023-03-05T00:23:59;11.73;;;7.53;;
9860;SDS011;4969;52.304;4.968;2023-03-05T00:26:27;10.43;;;5.17;;
9860;SDS011;4969;52.304;4.968;2023-03-05T00:28:54;10.13;;;6.33;;
9860;SDS011;4969;52.304;4.968;2023-03-05T00:31:23;13.10;;;6.63;;
9860;SDS011;4969;52.304;4.968;2023-03-05T00:33:55;9.90;;;8.03;;
9860;SDS011;4969;52.304;4.968;2023-03-05T00:36:23;7.53;;;4.73;;
9860;SDS011;4969;52.304;4.968;2023-03-05T00:38:51;7.67;;;3.67;;
9860;SDS011;4969;52.304;4.968;2023-03-05T00:41:18;13.73;;;9.07;;
9860;SDS011;4969;52.304;4.968;2023-03-05T00:43:45;10.70;;;7.67;;
9860;SDS011;4969;52.304;4.968;2023-03-05T00:46:12;9.73;;;7.40;;
9860;SDS011;4969;52.304;4.968;2023-03-05T00:48:38;14.33;;;11.53;;
9860;SDS011;4969;52.304;4.968;2023-03-05T00:51:05;13.23;;;8.93;;
9860;SDS011;4969;52.304;4.968;2023-03-05T00:53:33;13.70;;;9.77;;
9860;SDS011;4969;52.304;4.968;2023-03-05T00:56:01;13.23;;;8.70;;
9860;SDS011;4969;52.304;4.968;2023-03-05T00:58:27;12.23;;;8.03;;
9860;SDS011;4969;52.304;4.968;2023-03-05T01:00:56;10.00;;;6.73;;
9860;SDS011;4969;52.304;4.968;2023-03-05T01:03:23;11.93;;;8.53;;
9860;SDS011;4969;52.304;4.968;2023-03-05T01:05:49;10.37;;;6.80;;
9860;SDS011;4969;52.304;4.968;2023-03-05T01:08:16;9.07;;;6.50;;
9860;SDS011;4969;52.304;4.968;2023-03-05T01:10:42;10.33;;;7.60;;
9860;SDS011;4969;52.304;4.968;2023-03-05T01:13:10;14.37;;;8.23;;
9860;SDS011;4969;52.304;4.968;2023-03-05T01:15:37;8.00;;;5.77;;
9860;SDS011;4969;52.304;4.968;2023-03-05T01:18:04;11.77;;;8.17;;
9860;SDS011;4969;52.304;4.968;2023-03-05T01:20:30;11.00;;;7.87;;
9860;SDS011;4969;52.304;4.968;2023-03-05T01:22:57;9.33;;;6.30;;
9860;SDS011;4969;52.304;4.968;2023-03-05T01:25:25;18.53;;;7.97;;
9860;SDS011;4969;52.304;4.968;2023-03-05T01:27:52;9.80;;;7.33;;
9860;SDS011;4969;52.304;4.968;2023-03-05T01:30:21;5.70;;;4.30;;
9860;SDS011;4969;52.304;4.968;2023-03-05T01:32:47;9.87;;;7.20;;
9860;SDS011;4969;52.304;4.968;2023-03-05T01:35:15;7.83;;;4.20;;
9860;SDS011;4969;52.304;4.968;2023-03-05T01:37:44;7.53;;;2.63;;
9860;SDS011;4969;52.304;4.968;2023-03-05T01:40:11;5.97;;;2.80;;
9860;SDS011;4969;52.304;4.968;2023-03-05T01:42:43;8.47;;;5.40;;
9860;SDS011;4969;52.304;4.968;2023-03-05T01:45:11;4.80;;;2.50;;
9860;SDS011;4969;52.304;4.968;2023-03-05T01:47:41;4.90;;;2.30;;
9860;SDS011;4969;52.304;4.968;2023-03-05T01:50:09;7.60;;;3.23;;
9860;SDS011;4969;52.304;4.968;2023-03-05T01:52:38;5.50;;;4.30;;
9860;SDS011;4969;52.304;4.968;2023-03-05T01:55:09;7.73;;;4.63;;
9860;SDS011;4969;52.304;4.968;2023-03-05T01:57:39;7.93;;;5.57;;
9860;SDS011;4969;52.304;4.968;2023-03-05T02:00:11;8.30;;;6.17;;
9860;SDS011;4969;52.304;4.968;2023-03-05T02:02:41;8.77;;;6.27;;
9860;SDS011;4969;52.304;4.968;2023-03-05T02:05:09;7.43;;;5.83;;
9860;SDS011;4969;52.304;4.968;2023-03-05T02:07:41;8.10;;;6.20;;
9860;SDS011;4969;52.304;4.968;2023-03-05T02:10:16;7.20;;;4.10;;
9860;SDS011;4969;52.304;4.968;2023-03-05T02:12:44;5.40;;;2.70;;
9860;SDS011;4969;52.304;4.968;2023-03-05T02:15:11;6.40;;;5.20;;
9860;SDS011;4969;52.304;4.968;2023-03-05T02:17:38;7.27;;;6.57;;
9860;SDS011;4969;52.304;4.968;2023-03-05T02:20:07;7.63;;;5.17;;
9860;SDS011;4969;52.304;4.968;2023-03-05T02:22:38;8.87;;;7.27;;
9860;SDS011;4969;52.304;4.968;2023-03-05T02:25:12;6.67;;;5.33;;
9860;SDS011;4969;52.304;4.968;2023-03-05T02:27:40;8.57;;;6.53;;
9860;SDS011;4969;52.304;4.968;2023-03-05T02:30:09;6.13;;;4.43;;
9860;SDS011;4969;52.304;4.968;2023-03-05T02:32:37;7.40;;;5.70;;
9860;SDS011;4969;52.304;4.968;2023-03-05T02:35:04;9.23;;;6.93;;
9860;SDS011;4969;52.304;4.968;2023-03-05T02:37:31;9.27;;;5.47;;
9860;SDS011;4969;52.304;4.968;2023-03-05T02:39:59;8.07;;;5.80;;
9860;SDS011;4969;52.304;4.968;2023-03-05T02:42:26;8.67;;;5.33;;
9860;SDS011;4969;52.304;4.968;2023-03-05T02:44:52;6.73;;;4.27;;
9860;SDS011;4969;52.304;4.968;2023-03-05T02:47:19;6.97;;;4.57;;
9860;SDS011;4969;52.304;4.968;2023-03-05T02:49:45;5.30;;;3.10;;
9860;SDS011;4969;52.304;4.968;2023-03-05T02:52:12;8.83;;;5.53;;
9860;SDS011;4969;52.304;4.968;2023-03-05T02:54:38;4.53;;;2.93;;
9860;SDS011;4969;52.304;4.968;2023-03-05T02:57:06;5.00;;;3.77;;
9860;SDS011;4969;52.304;4.968;2023-03-05T02:59:33;7.17;;;5.13;;
9860;SDS011;4969;52.304;4.968;2023-03-05T03:01:59;7.50;;;4.80;;
9860;SDS011;4969;52.304;4.968;2023-03-05T03:04:26;6.27;;;3.73;;
9860;SDS011;4969;52.304;4.968;2023-03-05T03:06:52;4.63;;;2.60;;
9860;SDS011;4969;52.304;4.968;2023-03-05T03:09:19;7.53;;;3.90;;
9860;SDS011;4969;52.304;4.968;2023-03-05T03:11:45;7.67;;;4.73;;
9860;SDS011;4969;52.304;4.968;2023-03-05T03:14:13;4.97;;;3.37;;
9860;SDS011;4969;52.304;4.968;2023-03-05T03:16:40;4.50;;;2.03;;
9860;SDS011;4969;52.304;4.968;2023-03-05T03:19:06;7.07;;;5.70;;
9860;SDS011;4969;52.304;4.968;2023-03-05T03:21:33;7.03;;;5.80;;
9860;SDS011;4969;52.304;4.968;2023-03-05T03:23:59;5.97;;;5.30;;
9860;SDS011;4969;52.304;4.968;2023-03-05T03:26:26;6.30;;;4.80;;
9860;SDS011;4969;52.304;4.968;2023-03-05T03:28:53;4.27;;;3.60;;
9860;SDS011;4969;52.304;4.968;2023-03-05T03:31:21;4.70;;;3.97;;
9860;SDS011;4969;52.304;4.968;2023-03-05T03:33:47;5.00;;;3.23;;
9860;SDS011;4969;52.304;4.968;2023-03-05T03:36:14;6.47;;;5.23;;
9860;SDS011;4969;52.304;4.968;2023-03-05T03:38:40;6.87;;;4.80;;
9860;SDS011;4969;52.304;4.968;2023-03-05T03:41:07;7.40;;;4.93;;
9860;SDS011;4969;52.304;4.968;2023-03-05T03:43:34;4.03;;;2.30;;
9860;SDS011;4969;52.304;4.968;2023-03-05T03:46:02;4.90;;;4.20;;
9860;SDS011;4969;52.304;4.968;2023-03-05T03:48:31;4.47;;;3.83;;
9860;SDS011;4969;52.304;4.968;2023-03-05T03:50:57;6.13;;;4.00;;
9860;SDS011;4969;52.304;4.968;2023-03-05T03:53:24;5.37;;;4.10;;
9860;SDS011;4969;52.304;4.968;2023-03-05T03:55:51;6.80;;;4.50;;
9860;SDS011;4969;52.304;4.968;2023-03-05T03:58:23;4.60;;;2.83;;
9860;SDS011;4969;52.304;4.968;2023-03-05T04:00:49;5.60;;;4.07;;
9860;SDS011;4969;52.304;4.968;2023-03-05T04:03:16;5.87;;;4.00;;
9860;SDS011;4969;52.304;4.968;2023-03-05T04:05:44;4.60;;;2.70;;
9860;SDS011;4969;52.304;4.968;2023-03-05T04:08:10;2.97;;;2.20;;
9860;SDS011;4969;52.304;4.968;2023-03-05T04:10:37;3.87;;;1.77;;
9860;SDS011;4969;52.304;4.968;2023-03-05T04:13:03;4.20;;;3.80;;
9860;SDS011;4969;52.304;4.968;2023-03-05T04:15:30;4.40;;;2.90;;
9860;SDS011;4969;52.304;4.968;2023-03-05T04:17:57;5.77;;;3.27;;
9860;SDS011;4969;52.304;4.968;2023-03-05T04:20:24;5.47;;;3.00;;
9860;SDS011;4969;52.304;4.968;2023-03-05T04:22:52;4.60;;;3.77;;
9860;SDS011;4969;52.304;4.968;2023-03-05T04:25:19;4.40;;;3.70;;
9860;SDS011;4969;52.304;4.968;2023-03-05T04:27:45;4.87;;;3.87;;
9860;SDS011;4969;52.304;4.968;2023-03-05T04:30:12;5.80;;;4.10;;
9860;SDS011;4969;52.304;4.968;2023-03-05T04:32:39;4.03;;;3.63;;
9860;SDS011;4969;52.304;4.968;2023-03-05T04:35:06;4.33;;;3.43;;
9860;SDS011;4969;52.304;4.968;2023-03-05T04:37:33;5.10;;;4.10;;
9860;SDS011;4969;52.304;4.968;2023-03-05T04:40:01;3.53;;;2.43;;
9860;SDS011;4969;52.304;4.968;2023-03-05T04:42:28;3.83;;;2.43;;
9860;SDS011;4969;52.304;4.968;2023-03-05T04:44:55;4.60;;;2.87;;
9860;SDS011;4969;52.304;4.968;2023-03-05T04:47:22;4.10;;;2.53;;
9860;SDS011;4969;52.304;4.968;2023-03-05T04:49:48;3.67;;;3.27;;
9860;SDS011;4969;52.304;4.968;2023-03-05T04:52:15;5.13;;;3.30;;
9860;SDS011;4969;52.304;4.968;2023-03-05T04:54:42;4.40;;;3.37;;
9860;SDS011;4969;52.304;4.968;2023-03-05T04:57:10;4.00;;;1.57;;
9860;SDS011;4969;52.304;4.968;2023-03-05T04:59:37;2.43;;;1.63;;
9860;SDS011;4969;52.304;4.968;2023-03-05T05:02:03;4.50;;;2.80;;
9860;SDS011;4969;52.304;4.968;2023-03-05T05:04:30;3.60;;;2.07;;
9860;SDS011;4969;52.304;4.968;2023-03-05T05:06:59;3.63;;;2.60;;
9860;SDS011;4969;52.304;4.968;2023-03-05T05:09:26;3.93;;;3.20;;
9860;SDS011;4969;52.304;4.968;2023-03-05T05:11:53;2.57;;;2.03;;
9860;SDS011;4969;52.304;4.968;2023-03-05T05:14:21;2.70;;;2.07;;
9860;SDS011;4969;52.304;4.968;2023-03-05T05:16:47;2.70;;;2.40;;
9860;SDS011;4969;52.304;4.968;2023-03-05T05:19:14;2.23;;;1.37;;
9860;SDS011;4969;52.304;4.968;2023-03-05T05:21:40;3.53;;;1.90;;
9860;SDS011;4969;52.304;4.968;2023-03-05T05:24:07;3.53;;;3.27;;
9860;SDS011;4969;52.304;4.968;2023-03-05T05:26:34;3.30;;;3.00;;
9860;SDS011;4969;52.304;4.968;2023-03-05T05:29:00;3.60;;;3.00;;
9860;SDS011;4969;52.304;4.968;2023-03-05T05:31:28;3.63;;;2.63;;
9860;SDS011;4969;52.304;4.968;2023-03-05T05:33:55;3.03;;;2.83;;
9860;SDS011;4969;52.304;4.968;2023-03-05T05:36:21;3.70;;;2.70;;
9860;SDS011;4969;52.304;4.968;2023-03-05T05:38:48;2.30;;;2.00;;
9860;SDS011;4969;52.304;4.968;2023-03-05T05:41:16;2.00;;;1.10;;
9860;SDS011;4969;52.304;4.968;2023-03-05T05:43:43;2.13;;;1.50;;
9860;SDS011;4969;52.304;4.968;2023-03-05T05:46:11;3.10;;;1.60;;
9860;SDS011;4969;52.304;4.968;2023-03-05T05:48:39;3.70;;;1.40;;
9860;SDS011;4969;52.304;4.968;2023-03-05T05:51:07;2.40;;;1.40;;
9860;SDS011;4969;52.304;4.968;2023-03-05T05:53:35;3.40;;;1.63;;
9860;SDS011;4969;52.304;4.968;2023-03-05T05:56:02;6.40;;;1.80;;
9860;SDS011;4969;52.304;4.968;2023-03-05T05:58:29;2.53;;;1.67;;
9860;SDS011;4969;52.304;4.968;2023-03-05T06:00:55;3.20;;;1.57;;
9860;SDS011;4969;52.304;4.968;2023-03-05T06:03:22;4.33;;;1.80;;
9860;SDS011;4969;52.304;4.968;2023-03-05T06:05:50;4.63;;;2.00;;
9860;SDS011;4969;52.304;4.968;2023-03-05T06:08:17;4.33;;;1.73;;
9860;SDS011;4969;52.304;4.968;2023-03-05T06:10:43;2.93;;;1.50;;
9860;SDS011;4969;52.304;4.968;2023-03-05T06:13:10;2.97;;;1.87;;
9860;SDS011;4969;52.304;4.968;2023-03-05T06:15:36;3.77;;;2.07;;
9860;SDS011;4969;52.304;4.968;2023-03-05T06:18:03;3.33;;;2.10;;
9860;SDS011;4969;52.304;4.968;2023-03-05T06:20:29;5.23;;;1.97;;
9860;SDS011;4969;52.304;4.968;2023-03-05T06:22:57;2.90;;;1.90;;
9860;SDS011;4969;52.304;4.968;2023-03-05T06:25:24;4.97;;;2.20;;
9860;SDS011;4969;52.304;4.968;2023-03-05T06:27:50;4.77;;;1.93;;
9860;SDS011;4969;52.304;4.968;2023-03-05T06:30:17;4.20;;;2.10;;
9860;SDS011;4969;52.304;4.968;2023-03-05T06:32:44;3.57;;;2.17;;
9860;SDS011;4969;52.304;4.968;2023-03-05T06:35:10;2.27;;;1.50;;
9860;SDS011;4969;52.304;4.968;2023-03-05T06:37:38;4.47;;;1.67;;
9860;SDS011;4969;52.304;4.968;2023-03-05T06:40:06;3.10;;;1.43;;
9860;SDS011;4969;52.304;4.968;2023-03-05T06:42:34;2.37;;;1.63;;
9860;SDS011;4969;52.304;4.968;2023-03-05T06:45:01;2.57;;;1.53;;
9860;SDS011;4969;52.304;4.968;2023-03-05T06:47:27;3.80;;;1.60;;
9860;SDS011;4969;52.304;4.968;2023-03-05T06:49:54;2.80;;;1.70;;
9860;SDS011;4969;52.304;4.968;2023-03-05T06:52:20;4.13;;;1.80;;
9860;SDS011;4969;52.304;4.968;2023-03-05T06:54:47;3.47;;;1.57;;
9860;SDS011;4969;52.304;4.968;2023-03-05T06:57:15;3.20;;;1.60;;
9860;SDS011;4969;52.304;4.968;2023-03-05T06:59:41;3.30;;;1.40;;
9860;SDS011;4969;52.304;4.968;2023-03-05T07:02:08;2.07;;;1.60;;
9860;SDS011;4969;52.304;4.968;2023-03-05T07:04:36;3.33;;;1.70;;
9860;SDS011;4969;52.304;4.968;2023-03-05T07:07:02;2.87;;;1.50;;
9860;SDS011;4969;52.304;4.968;2023-03-05T07:09:29;3.73;;;1.67;;
9860;SDS011;4969;52.304;4.968;2023-03-05T07:11:55;2.77;;;1.80;;
9860;SDS011;4969;52.304;4.968;2023-03-05T07:14:23;1.90;;;1.40;;
9860;SDS011;4969;52.304;4.968;2023-03-05T07:16:50;3.03;;;1.70;;
9860;SDS011;4969;52.304;4.968;2023-03-05T07:19:16;1.90;;;1.70;;
9860;SDS011;4969;52.304;4.968;2023-03-05T07:21:43;3.37;;;1.60;;
9860;SDS011;4969;52.304;4.968;2023-03-05T07:24:10;3.17;;;1.70;;
9860;SDS011;4969;52.304;4.968;2023-03-05T07:26:37;4.97;;;2.33;;
9860;SDS011;4969;52.304;4.968;2023-03-05T07:29:04;4.83;;;1.60;;
9860;SDS011;4969;52.304;4.968;2023-03-05T07:31:31;3.37;;;1.87;;
9860;SDS011;4969;52.304;4.968;2023-03-05T07:33:58;2.50;;;1.67;;
9860;SDS011;4969;52.304;4.968;2023-03-05T07:36:26;1.73;;;1.57;;
9860;SDS011;4969;52.304;4.968;2023-03-05T07:38:53;4.97;;;2.00;;
9860;SDS011;4969;52.304;4.968;2023-03-05T07:41:20;2.10;;;1.57;;
9860;SDS011;4969;52.304;4.968;2023-03-05T07:43:48;3.03;;;1.50;;
9860;SDS011;4969;52.304;4.968;2023-03-05T07:46:17;3.07;;;1.70;;
9860;SDS011;4969;52.304;4.968;2023-03-05T07:48:47;5.80;;;1.80;;
9860;SDS011;4969;52.304;4.968;2023-03-05T07:51:14;4.17;;;2.00;;
9860;SDS011;4969;52.304;4.968;2023-03-05T07:53:42;2.73;;;1.83;;
9860;SDS011;4969;52.304;4.968;2023-03-05T07:56:10;5.17;;;1.80;;
9860;SDS011;4969;52.304;4.968;2023-03-05T07:58:36;3.97;;;1.73;;
9860;SDS011;4969;52.304;4.968;2023-03-05T08:01:03;2.97;;;1.60;;
9860;SDS011;4969;52.304;4.968;2023-03-05T08:03:36;2.53;;;1.70;;
9860;SDS011;4969;52.304;4.968;2023-03-05T08:06:05;4.97;;;2.03;;
9860;SDS011;4969;52.304;4.968;2023-03-05T08:08:32;2.07;;;1.87;;
9860;SDS011;4969;52.304;4.968;2023-03-05T08:11:01;4.67;;;2.10;;
9860;SDS011;4969;52.304;4.968;2023-03-05T08:13:29;4.57;;;2.10;;
9860;SDS011;4969;52.304;4.968;2023-03-05T08:15:56;4.43;;;2.10;;
9860;SDS011;4969;52.304;4.968;2023-03-05T08:18:22;2.63;;;1.70;;
9860;SDS011;4969;52.304;4.968;2023-03-05T08:20:49;3.10;;;2.00;;
9860;SDS011;4969;52.304;4.968;2023-03-05T08:23:17;2.70;;;1.63;;
9860;SDS011;4969;52.304;4.968;2023-03-05T08:25:43;3.00;;;1.30;;
9860;SDS011;4969;52.304;4.968;2023-03-05T08:28:10;4.13;;;1.40;;
9860;SDS011;4969;52.304;4.968;2023-03-05T08:30:38;3.30;;;1.40;;
9860;SDS011;4969;52.304;4.968;2023-03-05T08:33:05;2.53;;;1.37;;
9860;SDS011;4969;52.304;4.968;2023-03-05T08:35:32;1.50;;;1.30;;
9860;SDS011;4969;52.304;4.968;2023-03-05T08:37:58;1.83;;;1.20;;
9860;SDS011;4969;52.304;4.968;2023-03-05T08:40:26;2.93;;;1.40;;
9860;SDS011;4969;52.304;4.968;2023-03-05T08:42:53;5.20;;;1.30;;
9860;SDS011;4969;52.304;4.968;2023-03-05T08:45:20;3.07;;;1.47;;
9860;SDS011;4969;52.304;4.968;2023-03-05T08:47:47;3.13;;;1.40;;
9860;SDS011;4969;52.304;4.968;2023-03-05T08:50:14;3.13;;;1.63;;
9860;SDS011;4969;52.304;4.968;2023-03-05T08:52:41;3.53;;;1.50;;
9860;SDS011;4969;52.304;4.968;2023-03-05T08:55:09;2.43;;;1.40;;
9860;SDS011;4969;52.304;4.968;2023-03-05T08:57:38;4.57;;;1.87;;
9860;SDS011;4969;52.304;4.968;2023-03-05T09:00:05;1.70;;;1.13;;
9860;SDS011;4969;52.304;4.968;2023-03-05T09:02:34;3.23;;;1.70;;
9860;SDS011;4969;52.304;4.968;2023-03-05T09:05:00;4.13;;;1.57;;
9860;SDS011;4969;52.304;4.968;2023-03-05T09:07:27;3.57;;;1.50;;
9860;SDS011;4969;52.304;4.968;2023-03-05T09:09:54;2.83;;;1.83;;
9860;SDS011;4969;52.304;4.968;2023-03-05T09:12:20;5.73;;;1.90;;
9860;SDS011;4969;52.304;4.968;2023-03-05T09:14:48;2.33;;;1.23;;
9860;SDS011;4969;52.304;4.968;2023-03-05T09:17:15;4.30;;;1.60;;
9860;SDS011;4969;52.304;4.968;2023-03-05T09:19:41;3.73;;;1.60;;
9860;SDS011;4969;52.304;4.968;2023-03-05T09:22:08;2.93;;;1.57;;
9860;SDS011;4969;52.304;4.968;2023-03-05T09:24:35;2.70;;;1.60;;
9860;SDS011;4969;52.304;4.968;2023-03-05T09:27:01;3.07;;;1.40;;
9860;SDS011;4969;52.304;4.968;2023-03-05T09:29:28;2.37;;;1.30;;
9860;SDS011;4969;52.304;4.968;2023-03-05T09:31:56;3.43;;;1.40;;
9860;SDS011;4969;52.304;4.968;2023-03-05T09:34:23;3.43;;;1.33;;
9860;SDS011;4969;52.304;4.968;2023-03-05T09:36:49;4.03;;;1.50;;
9860;SDS011;4969;52.304;4.968;2023-03-05T09:39:16;4.77;;;1.20;;
9860;SDS011;4969;52.304;4.968;2023-03-05T09:41:50;3.63;;;1.40;;
9860;SDS011;4969;52.304;4.968;2023-03-05T09:44:30;1.97;;;1.13;;
9860;SDS011;4969;52.304;4.968;2023-03-05T09:47:07;3.90;;;1.33;;
9860;SDS011;4969;52.304;4.968;2023-03-05T09:49:50;4.37;;;1.40;;
9860;SDS011;4969;52.304;4.968;2023-03-05T09:52:25;3.27;;;1.10;;
9860;SDS011;4969;52.304;4.968;2023-03-05T09:54:59;2.43;;;1.40;;
9860;SDS011;4969;52.304;4.968;2023-03-05T09:57:28;5.33;;;1.30;;
9860;SDS011;4969;52.304;4.968;2023-03-05T10:00:02;4.57;;;1.30;;
9860;SDS011;4969;52.304;4.968;2023-03-05T10:02:35;3.87;;;1.50;;
9860;SDS011;4969;52.304;4.968;2023-03-05T10:05:11;3.37;;;1.40;;
9860;SDS011;4969;52.304;4.968;2023-03-05T10:07:43;3.13;;;1.30;;
9860;SDS011;4969;52.304;4.968;2023-03-05T10:10:19;4.07;;;1.07;;
9860;SDS011;4969;52.304;4.968;2023-03-05T10:12:51;5.40;;;1.90;;
9860;SDS011;4969;52.304;4.968;2023-03-05T10:15:22;2.93;;;1.70;;
9860;SDS011;4969;52.304;4.968;2023-03-05T10:17:59;3.23;;;1.33;;
9860;SDS011;4969;52.304;4.968;2023-03-05T10:23:29;4.43;;;1.53;;
9860;SDS011;4969;52.304;4.968;2023-03-05T10:26:01;5.00;;;1.63;;
9860;SDS011;4969;52.304;4.968;2023-03-05T10:28:39;2.00;;;1.17;;
9860;SDS011;4969;52.304;4.968;2023-03-05T10:31:19;2.50;;;1.20;;
9860;SDS011;4969;52.304;4.968;2023-03-05T10:34:00;3.43;;;1.30;;
9860;SDS011;4969;52.304;4.968;2023-03-05T10:36:41;3.13;;;0.90;;
9860;SDS011;4969;52.304;4.968;2023-03-05T10:42:33;3.10;;;0.90;;
9860;SDS011;4969;52.304;4.968;2023-03-05T10:45:11;4.27;;;1.20;;
9860;SDS011;4969;52.304;4.968;2023-03-05T10:47:41;1.53;;;0.80;;
9860;SDS011;4969;52.304;4.968;2023-03-05T10:50:16;3.37;;;0.93;;
9860;SDS011;4969;52.304;4.968;2023-03-05T10:52:44;3.60;;;1.23;;
9860;SDS011;4969;52.304;4.968;2023-03-05T10:55:16;1.83;;;1.20;;
9860;SDS011;4969;52.304;4.968;2023-03-05T10:57:45;1.70;;;1.00;;
9860;SDS011;4969;52.304;4.968;2023-03-05T11:00:16;3.27;;;1.17;;
9860;SDS011;4969;52.304;4.968;2023-03-05T11:02:58;1.70;;;0.90;;
9860;SDS011;4969;52.304;4.968;2023-03-05T11:05:34;1.93;;;1.00;;
9860;SDS011;4969;52.304;4.968;2023-03-05T11:08:18;2.07;;;1.10;;
9860;SDS011;4969;52.304;4.968;2023-03-05T11:11:12;2.57;;;1.10;;
9860;SDS011;4969;52.304;4.968;2023-03-05T11:13:49;3.20;;;0.90;;
9860;SDS011;4969;52.304;4.968;2023-03-05T11:16:19;3.30;;;1.10;;
9860;SDS011;4969;52.304;4.968;2023-03-05T11:18:47;2.57;;;0.97;;
9860;SDS011;4969;52.304;4.968;2023-03-05T11:21:20;1.90;;;0.90;;
9860;SDS011;4969;52.304;4.968;2023-03-05T11:24:04;4.67;;;1.37;;
9860;SDS011;4969;52.304;4.968;2023-03-05T11:26:35;3.93;;;2.43;;
9860;SDS011;4969;52.304;4.968;2023-03-05T11:29:02;3.23;;;1.60;;
9860;SDS011;4969;52.304;4.968;2023-03-05T11:31:34;3.67;;;1.57;;
9860;SDS011;4969;52.304;4.968;2023-03-05T11:34:02;2.67;;;1.97;;
9860;SDS011;4969;52.304;4.968;2023-03-05T11:36:34;8.67;;;5.23;;
9860;SDS011;4969;52.304;4.968;2023-03-05T11:39:10;3.83;;;2.40;;
9860;SDS011;4969;52.304;4.968;2023-03-05T11:41:41;4.37;;;1.63;;
9860;SDS011;4969;52.304;4.968;2023-03-05T11:44:10;4.17;;;1.93;;
9860;SDS011;4969;52.304;4.968;2023-03-05T11:46:40;3.57;;;1.77;;
9860;SDS011;4969;52.304;4.968;2023-03-05T11:49:10;4.10;;;1.50;;
9860;SDS011;4969;52.304;4.968;2023-03-05T11:51:43;3.83;;;1.43;;
9860;SDS011;4969;52.304;4.968;2023-03-05T11:54:16;2.47;;;1.37;;
9860;SDS011;4969;52.304;4.968;2023-03-05T11:56:48;2.20;;;1.33;;
9860;SDS011;4969;52.304;4.968;2023-03-05T11:59:18;3.53;;;1.43;;
9860;SDS011;4969;52.304;4.968;2023-03-05T12:01:49;2.90;;;1.40;;
9860;SDS011;4969;52.304;4.968;2023-03-05T12:04:18;1.63;;;1.03;;
9860;SDS011;4969;52.304;4.968;2023-03-05T12:06:48;2.30;;;1.10;;
9860;SDS011;4969;52.304;4.968;2023-03-05T12:09:18;3.90;;;1.40;;
9860;SDS011;4969;52.304;4.968;2023-03-05T12:11:49;3.13;;;1.50;;
9860;SDS011;4969;52.304;4.968;2023-03-05T12:14:23;2.80;;;1.20;;
9860;SDS011;4969;52.304;4.968;2023-03-05T12:16:57;2.30;;;1.10;;
9860;SDS011;4969;52.304;4.968;2023-03-05T12:19:31;2.37;;;1.00;;
9860;SDS011;4969;52.304;4.968;2023-03-05T12:22:13;4.13;;;1.30;;
9860;SDS011;4969;52.304;4.968;2023-03-05T12:24:41;2.60;;;1.90;;
9860;SDS011;4969;52.304;4.968;2023-03-05T12:27:12;4.23;;;1.23;;
9860;SDS011;4969;52.304;4.968;2023-03-05T12:29:41;3.90;;;2.40;;
9860;SDS011;4969;52.304;4.968;2023-03-05T12:35:34;1.43;;;1.07;;
9860;SDS011;4969;52.304;4.968;2023-03-05T12:38:04;3.03;;;1.10;;
9860;SDS011;4969;52.304;4.968;2023-03-05T12:40:45;1.77;;;1.30;;
9860;SDS011;4969;52.304;4.968;2023-03-05T12:43:28;1.23;;;0.80;;
9860;SDS011;4969;52.304;4.968;2023-03-05T12:46:21;2.27;;;0.80;;
9860;SDS011;4969;52.304;4.968;2023-03-05T12:48:49;4.33;;;1.10;;
9860;SDS011;4969;52.304;4.968;2023-03-05T12:56:47;2.00;;;0.60;;
9860;SDS011;4969;52.304;4.968;2023-03-05T12:59:13;3.17;;;2.27;;
9860;SDS011;4969;52.304;4.968;2023-03-05T13:01:46;1.27;;;0.77;;
9860;SDS011;4969;52.304;4.968;2023-03-05T13:04:21;1.67;;;0.63;;
9860;SDS011;4969;52.304;4.968;2023-03-05T13:06:57;2.10;;;0.80;;
9860;SDS011;4969;52.304;4.968;2023-03-05T13:09:27;1.67;;;1.20;;
9860;SDS011;4969;52.304;4.968;2023-03-05T13:11:55;2.67;;;1.03;;
9860;SDS011;4969;52.304;4.968;2023-03-05T13:14:27;3.37;;;1.13;;
9860;SDS011;4969;52.304;4.968;2023-03-05T13:16:57;2.73;;;0.50;;
9860;SDS011;4969;52.304;4.968;2023-03-05T13:19:24;1.53;;;0.87;;
9860;SDS011;4969;52.304;4.968;2023-03-05T13:21:56;2.10;;;0.63;;
9860;SDS011;4969;52.304;4.968;2023-03-05T13:24:24;2.03;;;1.40;;
9860;SDS011;4969;52.304;4.968;2023-03-05T13:26:52;4.20;;;2.53;;
9860;SDS011;4969;52.304;4.968;2023-03-05T13:29:19;1.33;;;1.00;;
9860;SDS011;4969;52.304;4.968;2023-03-05T13:31:47;2.07;;;0.83;;
9860;SDS011;4969;52.304;4.968;2023-03-05T13:34:18;1.13;;;1.03;;
9860;SDS011;4969;52.304;4.968;2023-03-05T13:36:48;3.87;;;1.70;;
9860;SDS011;4969;52.304;4.968;2023-03-05T13:39:19;3.13;;;1.70;;
9860;SDS011;4969;52.304;4.968;2023-03-05T13:41:59;5.63;;;3.17;;
9860;SDS011;4969;52.304;4.968;2023-03-05T13:44:28;2.57;;;1.40;;
9860;SDS011;4969;52.304;4.968;2023-03-05T13:47:05;2.70;;;1.67;;
9860;SDS011;4969;52.304;4.968;2023-03-05T13:49:33;1.63;;;1.07;;
9860;SDS011;4969;52.304;4.968;2023-03-05T13:52:00;2.87;;;1.40;;
9860;SDS011;4969;52.304;4.968;2023-03-05T13:54:27;2.57;;;1.20;;
9860;SDS011;4969;52.304;4.968;2023-03-05T13:56:55;2.57;;;1.13;;
9860;SDS011;4969;52.304;4.968;2023-03-05T13:59:24;2.60;;;1.50;;
9860;SDS011;4969;52.304;4.968;2023-03-05T14:01:53;5.07;;;3.87;;
9860;SDS011;4969;52.304;4.968;2023-03-05T14:04:21;2.63;;;1.60;;
9860;SDS011;4969;52.304;4.968;2023-03-05T14:06:51;3.27;;;2.33;;
9860;SDS011;4969;52.304;4.968;2023-03-05T14:09:22;1.37;;;1.00;;
9860;SDS011;4969;52.304;4.968;2023-03-05T14:11:54;2.30;;;0.80;;
9860;SDS011;4969;52.304;4.968;2023-03-05T14:14:24;2.20;;;0.60;;
9860;SDS011;4969;52.304;4.968;2023-03-05T14:16:52;3.07;;;2.43;;
9860;SDS011;4969;52.304;4.968;2023-03-05T14:19:32;8.37;;;5.10;;
9860;SDS011;4969;52.304;4.968;2023-03-05T14:22:01;2.40;;;0.90;;
9860;SDS011;4969;52.304;4.968;2023-03-05T14:24:29;1.23;;;0.63;;
9860;SDS011;4969;52.304;4.968;2023-03-05T14:26:56;4.73;;;1.30;;
9860;SDS011;4969;52.304;4.968;2023-03-05T14:29:26;2.60;;;0.80;;
9860;SDS011;4969;52.304;4.968;2023-03-05T14:31:55;1.83;;;1.07;;
9860;SDS011;4969;52.304;4.968;2023-03-05T14:34:24;1.70;;;0.67;;
9860;SDS011;4969;52.304;4.968;2023-03-05T14:36:55;3.13;;;2.27;;
9860;SDS011;4969;52.304;4.968;2023-03-05T14:39:28;1.40;;;0.70;;
9860;SDS011;4969;52.304;4.968;2023-03-05T14:42:12;2.43;;;1.13;;
9860;SDS011;4969;52.304;4.968;2023-03-05T14:44:51;3.10;;;0.70;;
9860;SDS011;4969;52.304;4.968;2023-03-05T14:47:17;2.30;;;1.37;;
9860;SDS011;4969;52.304;4.968;2023-03-05T14:49:44;0.73;;;0.60;;
9860;SDS011;4969;52.304;4.968;2023-03-05T14:52:11;1.77;;;1.40;;
9860;SDS011;4969;52.304;4.968;2023-03-05T14:54:40;1.27;;;0.90;;
9860;SDS011;4969;52.304;4.968;2023-03-05T14:57:06;3.17;;;0.93;;
9860;SDS011;4969;52.304;4.968;2023-03-05T14:59:35;0.87;;;0.70;;
9860;SDS011;4969;52.304;4.968;2023-03-05T15:02:05;6.03;;;3.00;;
9860;SDS011;4969;52.304;4.968;2023-03-05T15:04:31;1.90;;;0.90;;
9860;SDS011;4969;52.304;4.968;2023-03-05T15:06:58;3.77;;;0.80;;
9860;SDS011;4969;52.304;4.968;2023-03-05T15:09:25;3.03;;;1.03;;
9860;SDS011;4969;52.304;4.968;2023-03-05T15:11:51;2.03;;;1.40;;
9860;SDS011;4969;52.304;4.968;2023-03-05T15:14:18;4.83;;;2.63;;
9860;SDS011;4969;52.304;4.968;2023-03-05T15:16:44;2.07;;;0.80;;
9860;SDS011;4969;52.304;4.968;2023-03-05T15:19:14;2.97;;;2.20;;
9860;SDS011;4969;52.304;4.968;2023-03-05T15:21:40;2.33;;;0.90;;
9860;SDS011;4969;52.304;4.968;2023-03-05T15:24:07;6.90;;;4.50;;
9860;SDS011;4969;52.304;4.968;2023-03-05T15:26:34;3.50;;;0.83;;
9860;SDS011;4969;52.304;4.968;2023-03-05T15:29:01;3.07;;;2.53;;
9860;SDS011;4969;52.304;4.968;2023-03-05T15:31:27;3.27;;;1.90;;
9860;SDS011;4969;52.304;4.968;2023-03-05T15:34:02;2.90;;;1.00;;
9860;SDS011;4969;52.304;4.968;2023-03-05T15:36:30;1.63;;;0.80;;
9860;SDS011;4969;52.304;4.968;2023-03-05T15:38:57;4.53;;;4.03;;
9860;SDS011;4969;52.304;4.968;2023-03-05T15:41:23;1.97;;;0.80;;